ディエゴガルシア島 の空港の天気 - METARとTAF

ディエゴガルシア基地 ( FJDG / NKW ) - ディエゴガルシア島
飛行場実況気象(Metar)
観測時間02/06 01:55 IOT (02/05 19:55 UTC)
風向・風速西 3m/s
視程10km以上
天気現象
少しの雲 雲底高度 610m
全天の4割程度の雲 雲底高度 1680m
全天の8割程度の雲 雲底高度 2440m
気温27.4℃
湿度88%
気圧1009.1hPa
METARFJDG 051955Z 28005KT 9999 FEW020 SCT055 BKN080 27/25 A2981 RMK SLP091 T02740253
過去の天気等 Google飛行場航空写真 Wunderground天気予報

過去48時間のMETAR

飛行場予報(TAF)
発表時間: 2/05 23:00 IOT (2/05 17:00 UTC)
予報対象時間: 5日23時 IOT ~ 7日5時 IOT
風向・風速西 5m/s
視程10km以上
全天の4割程度の雲 雲底高度 910m
6日16時 IOT ~ 6日17時 IOT に徐々に
風向・風速西 6m/s
視程8000m
天気現象弱いしゅう雨
全天の4割程度の雲 雲底高度 730m
TAF FJDG 051700Z 0517/0623 26009KT 9999 SCT030 QNH2974INS
BECMG 0610/0611 27012KT 8000 -SHRA SCT024 QNH2978INS TX31/0607Z TN26/0523Z FOR MIL USE ONLY